sensor_id;sensor_type;location;lat;lon;timestamp;temperature;humidity
7204;DHT22;3643;52.460;13.322;2022-07-11T00:00:58;14.40;99.90
7204;DHT22;3643;52.460;13.322;2022-07-11T00:03:26;14.40;99.90
7204;DHT22;3643;52.460;13.322;2022-07-11T00:05:57;14.20;99.90
7204;DHT22;3643;52.460;13.322;2022-07-11T00:08:25;14.40;99.90
7204;DHT22;3643;52.460;13.322;2022-07-11T00:10:55;14.40;99.90
7204;DHT22;3643;52.460;13.322;2022-07-11T00:13:23;14.40;99.90
7204;DHT22;3643;52.460;13.322;2022-07-11T00:15:52;14.40;99.90
7204;DHT22;3643;52.460;13.322;2022-07-11T00:18:21;14.40;99.90
7204;DHT22;3643;52.460;13.322;2022-07-11T00:20:51;14.40;99.90
7204;DHT22;3643;52.460;13.322;2022-07-11T00:23:19;14.40;99.90
7204;DHT22;3643;52.460;13.322;2022-07-11T00:25:48;14.30;99.90
7204;DHT22;3643;52.460;13.322;2022-07-11T00:28:18;14.20;99.90
7204;DHT22;3643;52.460;13.322;2022-07-11T00:30:47;14.10;99.90
7204;DHT22;3643;52.460;13.322;2022-07-11T00:33:15;14.70;99.90
7204;DHT22;3643;52.460;13.322;2022-07-11T00:35:44;13.90;99.90
7204;DHT22;3643;52.460;13.322;2022-07-11T00:38:12;13.80;99.90
7204;DHT22;3643;52.460;13.322;2022-07-11T00:40:40;13.70;99.90
7204;DHT22;3643;52.460;13.322;2022-07-11T00:43:10;13.60;99.90
7204;DHT22;3643;52.460;13.322;2022-07-11T00:45:40;13.50;99.90
7204;DHT22;3643;52.460;13.322;2022-07-11T00:48:08;13.40;99.90
7204;DHT22;3643;52.460;13.322;2022-07-11T00:50:36;13.30;99.90
7204;DHT22;3643;52.460;13.322;2022-07-11T00:53:05;13.30;99.90
7204;DHT22;3643;52.460;13.322;2022-07-11T00:55:34;13.20;99.90
7204;DHT22;3643;52.460;13.322;2022-07-11T00:58:02;13.20;99.90
7204;DHT22;3643;52.460;13.322;2022-07-11T01:00:31;13.10;99.90
7204;DHT22;3643;52.460;13.322;2022-07-11T01:03:02;13.10;99.90
7204;DHT22;3643;52.460;13.322;2022-07-11T01:05:31;13.00;99.90
7204;DHT22;3643;52.460;13.322;2022-07-11T01:08:00;12.90;99.90
7204;DHT22;3643;52.460;13.322;2022-07-11T01:10:28;12.90;99.90
7204;DHT22;3643;52.460;13.322;2022-07-11T01:12:58;12.80;99.90
7204;DHT22;3643;52.460;13.322;2022-07-11T01:15:27;12.70;99.90
7204;DHT22;3643;52.460;13.322;2022-07-11T01:17:56;12.70;99.90
7204;DHT22;3643;52.460;13.322;2022-07-11T01:20:26;12.60;99.90
7204;DHT22;3643;52.460;13.322;2022-07-11T01:23:01;12.50;99.90
7204;DHT22;3643;52.460;13.322;2022-07-11T01:25:30;12.50;99.90
7204;DHT22;3643;52.460;13.322;2022-07-11T01:28:00;12.50;99.90
7204;DHT22;3643;52.460;13.322;2022-07-11T01:30:30;12.40;99.90
7204;DHT22;3643;52.460;13.322;2022-07-11T01:32:59;12.30;99.90
7204;DHT22;3643;52.460;13.322;2022-07-11T01:35:29;12.30;99.90
7204;DHT22;3643;52.460;13.322;2022-07-11T01:37:58;12.30;99.90
7204;DHT22;3643;52.460;13.322;2022-07-11T01:40:30;12.20;99.90
7204;DHT22;3643;52.460;13.322;2022-07-11T01:42:59;12.20;99.90
7204;DHT22;3643;52.460;13.322;2022-07-11T01:45:27;12.10;99.90
7204;DHT22;3643;52.460;13.322;2022-07-11T01:47:55;12.10;99.90
7204;DHT22;3643;52.460;13.322;2022-07-11T01:50:24;12.00;99.90
7204;DHT22;3643;52.460;13.322;2022-07-11T01:52:53;12.00;99.90
7204;DHT22;3643;52.460;13.322;2022-07-11T01:55:21;12.00;99.90
7204;DHT22;3643;52.460;13.322;2022-07-11T01:57:52;11.90;99.90
7204;DHT22;3643;52.460;13.322;2022-07-11T02:00:20;11.90;99.90
7204;DHT22;3643;52.460;13.322;2022-07-11T02:02:49;11.80;99.90
7204;DHT22;3643;52.460;13.322;2022-07-11T02:05:17;11.80;99.90
7204;DHT22;3643;52.460;13.322;2022-07-11T02:07:46;11.70;99.90
7204;DHT22;3643;52.460;13.322;2022-07-11T02:10:32;11.70;99.90
7204;DHT22;3643;52.460;13.322;2022-07-11T02:13:02;11.70;99.90
7204;DHT22;3643;52.460;13.322;2022-07-11T02:15:30;11.70;99.90
7204;DHT22;3643;52.460;13.322;2022-07-11T02:17:59;11.60;99.90
7204;DHT22;3643;52.460;13.322;2022-07-11T02:20:27;11.60;99.90
7204;DHT22;3643;52.460;13.322;2022-07-11T02:22:56;11.60;99.90
7204;DHT22;3643;52.460;13.322;2022-07-11T02:25:25;11.50;99.90
7204;DHT22;3643;52.460;13.322;2022-07-11T02:27:53;11.50;99.90
7204;DHT22;3643;52.460;13.322;2022-07-11T02:30:23;11.40;99.90
7204;DHT22;3643;52.460;13.322;2022-07-11T02:32:52;11.40;99.90
7204;DHT22;3643;52.460;13.322;2022-07-11T02:35:22;11.40;99.90
7204;DHT22;3643;52.460;13.322;2022-07-11T02:37:50;11.40;99.90
7204;DHT22;3643;52.460;13.322;2022-07-11T02:40:19;11.30;99.90
7204;DHT22;3643;52.460;13.322;2022-07-11T02:42:47;11.30;99.90
7204;DHT22;3643;52.460;13.322;2022-07-11T02:45:15;11.30;99.90
7204;DHT22;3643;52.460;13.322;2022-07-11T02:47:45;11.20;99.90
7204;DHT22;3643;52.460;13.322;2022-07-11T02:50:14;11.20;99.90
7204;DHT22;3643;52.460;13.322;2022-07-11T02:52:43;11.10;99.90
7204;DHT22;3643;52.460;13.322;2022-07-11T02:55:12;11.10;99.90
7204;DHT22;3643;52.460;13.322;2022-07-11T02:57:42;11.10;99.90
7204;DHT22;3643;52.460;13.322;2022-07-11T03:00:12;11.00;99.90
7204;DHT22;3643;52.460;13.322;2022-07-11T03:02:41;11.00;99.90
7204;DHT22;3643;52.460;13.322;2022-07-11T03:05:11;11.00;99.90
7204;DHT22;3643;52.460;13.322;2022-07-11T03:07:41;11.00;99.90
7204;DHT22;3643;52.460;13.322;2022-07-11T03:10:10;11.00;99.90
7204;DHT22;3643;52.460;13.322;2022-07-11T03:12:38;11.00;99.90
7204;DHT22;3643;52.460;13.322;2022-07-11T03:15:08;10.90;99.90
7204;DHT22;3643;52.460;13.322;2022-07-11T03:17:37;10.90;99.90
7204;DHT22;3643;52.460;13.322;2022-07-11T03:20:07;10.90;99.90
7204;DHT22;3643;52.460;13.322;2022-07-11T03:22:38;10.90;99.90
7204;DHT22;3643;52.460;13.322;2022-07-11T03:25:07;10.90;99.90
7204;DHT22;3643;52.460;13.322;2022-07-11T03:27:36;10.90;99.90
7204;DHT22;3643;52.460;13.322;2022-07-11T03:30:05;11.00;99.90
7204;DHT22;3643;52.460;13.322;2022-07-11T03:32:33;11.00;99.90
7204;DHT22;3643;52.460;13.322;2022-07-11T03:35:03;11.00;99.90
7204;DHT22;3643;52.460;13.322;2022-07-11T03:37:50;11.20;99.90
7204;DHT22;3643;52.460;13.322;2022-07-11T03:40:20;11.00;99.90
7204;DHT22;3643;52.460;13.322;2022-07-11T03:42:48;11.10;99.90
7204;DHT22;3643;52.460;13.322;2022-07-11T03:45:16;11.10;99.90
7204;DHT22;3643;52.460;13.322;2022-07-11T03:47:46;11.10;99.90
7204;DHT22;3643;52.460;13.322;2022-07-11T03:50:15;11.20;99.90
7204;DHT22;3643;52.460;13.322;2022-07-11T03:52:44;11.20;99.90
7204;DHT22;3643;52.460;13.322;2022-07-11T03:55:14;11.30;99.90
7204;DHT22;3643;52.460;13.322;2022-07-11T03:57:42;11.40;99.90
7204;DHT22;3643;52.460;13.322;2022-07-11T04:00:11;11.40;99.90
7204;DHT22;3643;52.460;13.322;2022-07-11T04:02:40;11.50;99.90
7204;DHT22;3643;52.460;13.322;2022-07-11T04:05:09;11.50;99.90
7204;DHT22;3643;52.460;13.322;2022-07-11T04:07:38;11.60;99.90
7204;DHT22;3643;52.460;13.322;2022-07-11T04:10:08;11.60;99.90
7204;DHT22;3643;52.460;13.322;2022-07-11T04:12:37;11.70;99.90
7204;DHT22;3643;52.460;13.322;2022-07-11T04:15:07;11.80;99.90
7204;DHT22;3643;52.460;13.322;2022-07-11T04:17:36;11.90;99.90
7204;DHT22;3643;52.460;13.322;2022-07-11T04:20:06;11.90;99.90
7204;DHT22;3643;52.460;13.322;2022-07-11T04:22:35;12.00;99.90
7204;DHT22;3643;52.460;13.322;2022-07-11T04:25:04;12.10;99.90
7204;DHT22;3643;52.460;13.322;2022-07-11T04:27:33;12.10;99.90
7204;DHT22;3643;52.460;13.322;2022-07-11T04:30:09;12.20;99.90
7204;DHT22;3643;52.460;13.322;2022-07-11T04:32:37;12.20;99.90
7204;DHT22;3643;52.460;13.322;2022-07-11T04:35:07;12.30;99.90
7204;DHT22;3643;52.460;13.322;2022-07-11T04:37:35;12.30;99.90
7204;DHT22;3643;52.460;13.322;2022-07-11T04:40:05;12.40;99.90
7204;DHT22;3643;52.460;13.322;2022-07-11T04:42:39;12.50;99.90
7204;DHT22;3643;52.460;13.322;2022-07-11T04:45:10;12.50;99.90
7204;DHT22;3643;52.460;13.322;2022-07-11T04:47:38;12.50;99.90
7204;DHT22;3643;52.460;13.322;2022-07-11T04:50:08;12.70;99.90
7204;DHT22;3643;52.460;13.322;2022-07-11T04:52:36;12.70;99.90
7204;DHT22;3643;52.460;13.322;2022-07-11T04:55:05;12.80;99.90
7204;DHT22;3643;52.460;13.322;2022-07-11T04:57:34;12.90;99.90
7204;DHT22;3643;52.460;13.322;2022-07-11T05:00:03;13.00;99.90
7204;DHT22;3643;52.460;13.322;2022-07-11T05:02:33;13.10;99.90
7204;DHT22;3643;52.460;13.322;2022-07-11T05:05:02;13.30;99.90
7204;DHT22;3643;52.460;13.322;2022-07-11T05:07:31;13.40;99.90
7204;DHT22;3643;52.460;13.322;2022-07-11T05:09:59;13.60;99.90
7204;DHT22;3643;52.460;13.322;2022-07-11T05:12:28;14.40;99.90
7204;DHT22;3643;52.460;13.322;2022-07-11T05:14:57;15.90;99.90
7204;DHT22;3643;52.460;13.322;2022-07-11T05:17:26;17.90;99.90
7204;DHT22;3643;52.460;13.322;2022-07-11T05:19:56;19.60;99.90
7204;DHT22;3643;52.460;13.322;2022-07-11T05:22:25;20.70;99.90
7204;DHT22;3643;52.460;13.322;2022-07-11T05:24:53;21.60;99.60
7204;DHT22;3643;52.460;13.322;2022-07-11T05:27:22;22.90;99.00
7204;DHT22;3643;52.460;13.322;2022-07-11T05:29:50;23.90;96.80
7204;DHT22;3643;52.460;13.322;2022-07-11T05:32:19;24.60;96.40
7204;DHT22;3643;52.460;13.322;2022-07-11T05:34:47;25.00;95.30
7204;DHT22;3643;52.460;13.322;2022-07-11T05:37:17;25.30;95.10
7204;DHT22;3643;52.460;13.322;2022-07-11T05:39:46;25.40;94.00
7204;DHT22;3643;52.460;13.322;2022-07-11T05:42:14;26.10;93.80
7204;DHT22;3643;52.460;13.322;2022-07-11T05:44:43;26.50;93.00
7204;DHT22;3643;52.460;13.322;2022-07-11T05:47:11;27.70;92.60
7204;DHT22;3643;52.460;13.322;2022-07-11T05:49:40;27.90;91.50
7204;DHT22;3643;52.460;13.322;2022-07-11T05:52:08;27.60;91.50
7204;DHT22;3643;52.460;13.322;2022-07-11T05:54:38;28.20;90.80
7204;DHT22;3643;52.460;13.322;2022-07-11T05:57:07;28.20;91.00
7204;DHT22;3643;52.460;13.322;2022-07-11T05:59:35;28.60;90.40
7204;DHT22;3643;52.460;13.322;2022-07-11T06:02:05;28.30;90.40
7204;DHT22;3643;52.460;13.322;2022-07-11T06:04:35;27.50;90.00
7204;DHT22;3643;52.460;13.322;2022-07-11T06:07:05;26.70;90.60
7204;DHT22;3643;52.460;13.322;2022-07-11T06:09:34;27.10;90.40
7204;DHT22;3643;52.460;13.322;2022-07-11T06:12:04;27.90;90.60
7204;DHT22;3643;52.460;13.322;2022-07-11T06:14:33;26.30;90.70
7204;DHT22;3643;52.460;13.322;2022-07-11T06:17:02;27.00;90.50
7204;DHT22;3643;52.460;13.322;2022-07-11T06:19:31;27.30;90.30
7204;DHT22;3643;52.460;13.322;2022-07-11T06:22:00;27.80;90.30
7204;DHT22;3643;52.460;13.322;2022-07-11T06:24:30;29.20;89.80
7204;DHT22;3643;52.460;13.322;2022-07-11T06:26:59;29.40;87.50
7204;DHT22;3643;52.460;13.322;2022-07-11T06:29:29;30.00;88.00
7204;DHT22;3643;52.460;13.322;2022-07-11T06:31:57;30.20;85.70
7204;DHT22;3643;52.460;13.322;2022-07-11T06:34:26;30.20;85.90
7204;DHT22;3643;52.460;13.322;2022-07-11T06:36:55;30.20;85.30
7204;DHT22;3643;52.460;13.322;2022-07-11T06:39:24;29.10;85.80
7204;DHT22;3643;52.460;13.322;2022-07-11T06:41:52;29.30;87.70
7204;DHT22;3643;52.460;13.322;2022-07-11T06:44:21;29.80;85.50
7204;DHT22;3643;52.460;13.322;2022-07-11T06:46:55;29.30;85.90
7204;DHT22;3643;52.460;13.322;2022-07-11T06:49:30;29.40;87.10
7204;DHT22;3643;52.460;13.322;2022-07-11T06:51:58;30.70;85.10
7204;DHT22;3643;52.460;13.322;2022-07-11T06:54:27;30.30;84.20
7204;DHT22;3643;52.460;13.322;2022-07-11T06:56:55;29.70;85.20
7204;DHT22;3643;52.460;13.322;2022-07-11T06:59:24;29.90;84.70
7204;DHT22;3643;52.460;13.322;2022-07-11T07:01:54;30.60;84.70
7204;DHT22;3643;52.460;13.322;2022-07-11T07:04:24;31.60;84.00
7204;DHT22;3643;52.460;13.322;2022-07-11T07:06:53;31.50;83.20
7204;DHT22;3643;52.460;13.322;2022-07-11T07:09:21;31.80;82.30
7204;DHT22;3643;52.460;13.322;2022-07-11T07:11:51;31.30;82.70
7204;DHT22;3643;52.460;13.322;2022-07-11T07:14:19;31.90;82.10
7204;DHT22;3643;52.460;13.322;2022-07-11T07:16:48;31.70;82.40
7204;DHT22;3643;52.460;13.322;2022-07-11T07:19:18;31.20;81.80
7204;DHT22;3643;52.460;13.322;2022-07-11T07:21:46;30.90;82.40
7204;DHT22;3643;52.460;13.322;2022-07-11T07:24:16;31.60;82.30
7204;DHT22;3643;52.460;13.322;2022-07-11T07:26:44;30.80;82.10
7204;DHT22;3643;52.460;13.322;2022-07-11T07:29:13;30.20;83.30
7204;DHT22;3643;52.460;13.322;2022-07-11T07:31:42;28.90;84.70
7204;DHT22;3643;52.460;13.322;2022-07-11T07:34:11;29.60;85.60
7204;DHT22;3643;52.460;13.322;2022-07-11T07:36:41;31.10;82.70
7204;DHT22;3643;52.460;13.322;2022-07-11T07:39:09;31.30;82.40
7204;DHT22;3643;52.460;13.322;2022-07-11T07:41:38;31.30;80.90
7204;DHT22;3643;52.460;13.322;2022-07-11T07:44:06;30.90;81.50
7204;DHT22;3643;52.460;13.322;2022-07-11T07:46:35;31.70;82.00
7204;DHT22;3643;52.460;13.322;2022-07-11T07:49:04;32.40;80.40
7204;DHT22;3643;52.460;13.322;2022-07-11T07:51:33;32.00;79.70
7204;DHT22;3643;52.460;13.322;2022-07-11T07:54:03;31.30;80.40
7204;DHT22;3643;52.460;13.322;2022-07-11T07:56:31;31.40;80.10
7204;DHT22;3643;52.460;13.322;2022-07-11T07:59:00;30.60;81.00
7204;DHT22;3643;52.460;13.322;2022-07-11T08:01:28;30.50;81.50
7204;DHT22;3643;52.460;13.322;2022-07-11T08:04:04;30.70;80.90
7204;DHT22;3643;52.460;13.322;2022-07-11T08:06:33;30.80;80.70
7204;DHT22;3643;52.460;13.322;2022-07-11T08:09:05;30.60;80.30
7204;DHT22;3643;52.460;13.322;2022-07-11T08:11:34;30.40;80.90
7204;DHT22;3643;52.460;13.322;2022-07-11T08:14:04;30.10;81.80
7204;DHT22;3643;52.460;13.322;2022-07-11T08:16:35;29.50;81.00
7204;DHT22;3643;52.460;13.322;2022-07-11T08:19:05;29.30;82.30
7204;DHT22;3643;52.460;13.322;2022-07-11T08:21:35;29.40;82.50
7204;DHT22;3643;52.460;13.322;2022-07-11T08:24:05;30.20;80.40
7204;DHT22;3643;52.460;13.322;2022-07-11T08:26:34;30.40;81.30
7204;DHT22;3643;52.460;13.322;2022-07-11T08:29:04;30.90;80.70
7204;DHT22;3643;52.460;13.322;2022-07-11T08:31:32;31.60;80.00
7204;DHT22;3643;52.460;13.322;2022-07-11T08:34:01;31.30;79.60
7204;DHT22;3643;52.460;13.322;2022-07-11T08:36:29;31.60;79.80
7204;DHT22;3643;52.460;13.322;2022-07-11T08:39:04;30.40;80.60
7204;DHT22;3643;52.460;13.322;2022-07-11T08:41:32;29.80;80.90
7204;DHT22;3643;52.460;13.322;2022-07-11T08:44:02;29.70;81.50
7204;DHT22;3643;52.460;13.322;2022-07-11T08:46:31;29.80;81.00
7204;DHT22;3643;52.460;13.322;2022-07-11T08:49:02;30.20;81.50
7204;DHT22;3643;52.460;13.322;2022-07-11T08:51:32;30.00;81.70
7204;DHT22;3643;52.460;13.322;2022-07-11T08:54:06;30.10;79.90
7204;DHT22;3643;52.460;13.322;2022-07-11T08:56:35;28.70;81.70
7204;DHT22;3643;52.460;13.322;2022-07-11T08:59:06;29.10;82.30
7204;DHT22;3643;52.460;13.322;2022-07-11T09:01:37;28.60;82.80
7204;DHT22;3643;52.460;13.322;2022-07-11T09:04:10;28.30;82.80
7204;DHT22;3643;52.460;13.322;2022-07-11T09:06:41;26.90;85.30
7204;DHT22;3643;52.460;13.322;2022-07-11T09:09:11;26.00;86.90
7204;DHT22;3643;52.460;13.322;2022-07-11T09:11:50;25.10;87.50
7204;DHT22;3643;52.460;13.322;2022-07-11T09:14:24;24.40;89.10
7204;DHT22;3643;52.460;13.322;2022-07-11T09:16:56;24.00;89.70
7204;DHT22;3643;52.460;13.322;2022-07-11T09:19:26;23.70;90.40
7204;DHT22;3643;52.460;13.322;2022-07-11T09:22:00;23.60;90.30
7204;DHT22;3643;52.460;13.322;2022-07-11T09:24:58;23.20;90.90
7204;DHT22;3643;52.460;13.322;2022-07-11T09:27:47;23.00;91.30
7204;DHT22;3643;52.460;13.322;2022-07-11T09:30:22;22.90;91.10
7204;DHT22;3643;52.460;13.322;2022-07-11T09:32:54;22.90;91.10
7204;DHT22;3643;52.460;13.322;2022-07-11T09:35:25;22.70;91.10
7204;DHT22;3643;52.460;13.322;2022-07-11T09:37:54;22.60;90.80
7204;DHT22;3643;52.460;13.322;2022-07-11T09:40:24;22.60;90.90
7204;DHT22;3643;52.460;13.322;2022-07-11T09:42:55;22.50;90.90
7204;DHT22;3643;52.460;13.322;2022-07-11T09:45:24;22.20;91.20
7204;DHT22;3643;52.460;13.322;2022-07-11T09:47:54;22.10;91.30
7204;DHT22;3643;52.460;13.322;2022-07-11T09:50:26;22.00;91.60
7204;DHT22;3643;52.460;13.322;2022-07-11T09:52:59;22.10;92.00
7204;DHT22;3643;52.460;13.322;2022-07-11T09:55:31;22.00;92.20
7204;DHT22;3643;52.460;13.322;2022-07-11T09:58:19;22.30;91.70
7204;DHT22;3643;52.460;13.322;2022-07-11T10:00:50;22.70;91.30
7204;DHT22;3643;52.460;13.322;2022-07-11T10:03:22;23.00;91.10
7204;DHT22;3643;52.460;13.322;2022-07-11T10:06:12;23.00;91.20
7204;DHT22;3643;52.460;13.322;2022-07-11T10:08:41;22.90;90.40
7204;DHT22;3643;52.460;13.322;2022-07-11T10:11:13;22.80;90.10
7204;DHT22;3643;52.460;13.322;2022-07-11T10:13:41;22.60;90.50
7204;DHT22;3643;52.460;13.322;2022-07-11T10:16:22;22.70;91.00
7204;DHT22;3643;52.460;13.322;2022-07-11T10:19:10;22.70;91.00
7204;DHT22;3643;52.460;13.322;2022-07-11T10:21:44;22.80;90.80
7204;DHT22;3643;52.460;13.322;2022-07-11T10:24:28;22.60;90.70
7204;DHT22;3643;52.460;13.322;2022-07-11T10:27:05;22.10;91.20
7204;DHT22;3643;52.460;13.322;2022-07-11T10:29:38;22.00;91.20
7204;DHT22;3643;52.460;13.322;2022-07-11T10:32:10;22.00;90.60
7204;DHT22;3643;52.460;13.322;2022-07-11T10:34:42;22.20;91.10
7204;DHT22;3643;52.460;13.322;2022-07-11T10:37:11;22.40;91.20
7204;DHT22;3643;52.460;13.322;2022-07-11T10:39:57;22.30;91.10
7204;DHT22;3643;52.460;13.322;2022-07-11T10:42:40;22.30;91.30
7204;DHT22;3643;52.460;13.322;2022-07-11T10:45:09;21.70;91.10
7204;DHT22;3643;52.460;13.322;2022-07-11T10:47:42;21.50;91.50
7204;DHT22;3643;52.460;13.322;2022-07-11T10:50:31;21.50;91.20
7204;DHT22;3643;52.460;13.322;2022-07-11T10:53:07;21.60;90.80
7204;DHT22;3643;52.460;13.322;2022-07-11T10:55:37;21.60;90.00
7204;DHT22;3643;52.460;13.322;2022-07-11T10:58:18;21.70;90.90
7204;DHT22;3643;52.460;13.322;2022-07-11T11:00:48;21.90;91.10
7204;DHT22;3643;52.460;13.322;2022-07-11T11:03:17;22.00;91.10
7204;DHT22;3643;52.460;13.322;2022-07-11T11:05:48;22.20;91.20
7204;DHT22;3643;52.460;13.322;2022-07-11T11:08:45;22.30;90.70
7204;DHT22;3643;52.460;13.322;2022-07-11T11:11:36;22.40;90.80
7204;DHT22;3643;52.460;13.322;2022-07-11T11:14:24;22.40;90.80
7204;DHT22;3643;52.460;13.322;2022-07-11T11:20:03;23.00;91.00
7204;DHT22;3643;52.460;13.322;2022-07-11T11:22:32;22.20;91.00
7204;DHT22;3643;52.460;13.322;2022-07-11T11:25:00;22.20;91.10
7204;DHT22;3643;52.460;13.322;2022-07-11T11:28:02;21.90;90.80
7204;DHT22;3643;52.460;13.322;2022-07-11T11:30:33;22.60;89.50
7204;DHT22;3643;52.460;13.322;2022-07-11T11:33:01;22.80;89.50
7204;DHT22;3643;52.460;13.322;2022-07-11T11:35:42;23.10;88.80
7204;DHT22;3643;52.460;13.322;2022-07-11T11:38:10;23.20;86.70
7204;DHT22;3643;52.460;13.322;2022-07-11T11:40:47;23.30;86.80
7204;DHT22;3643;52.460;13.322;2022-07-11T11:43:18;23.00;86.70
7204;DHT22;3643;52.460;13.322;2022-07-11T11:45:49;22.70;87.20
7204;DHT22;3643;52.460;13.322;2022-07-11T11:48:28;22.50;88.40
7204;DHT22;3643;52.460;13.322;2022-07-11T11:51:06;22.60;87.90
7204;DHT22;3643;52.460;13.322;2022-07-11T11:53:35;22.00;87.80
7204;DHT22;3643;52.460;13.322;2022-07-11T11:59:03;22.30;88.60
7204;DHT22;3643;52.460;13.322;2022-07-11T12:01:41;22.40;88.90
7204;DHT22;3643;52.460;13.322;2022-07-11T12:04:12;22.50;88.70
7204;DHT22;3643;52.460;13.322;2022-07-11T12:06:44;22.60;88.60
7204;DHT22;3643;52.460;13.322;2022-07-11T12:09:15;22.70;88.70
7204;DHT22;3643;52.460;13.322;2022-07-11T12:11:45;22.80;88.30
7204;DHT22;3643;52.460;13.322;2022-07-11T12:14:15;22.90;88.50
7204;DHT22;3643;52.460;13.322;2022-07-11T12:16:46;22.80;86.20
7204;DHT22;3643;52.460;13.322;2022-07-11T12:19:22;23.00;87.10
7204;DHT22;3643;52.460;13.322;2022-07-11T12:21:53;23.30;85.90
7204;DHT22;3643;52.460;13.322;2022-07-11T12:24:23;23.50;86.50
7204;DHT22;3643;52.460;13.322;2022-07-11T12:26:54;23.60;86.30
7204;DHT22;3643;52.460;13.322;2022-07-11T12:29:23;23.40;86.70
7204;DHT22;3643;52.460;13.322;2022-07-11T12:31:55;23.30;87.30
7204;DHT22;3643;52.460;13.322;2022-07-11T12:34:25;23.30;86.60
7204;DHT22;3643;52.460;13.322;2022-07-11T12:37:01;23.40;86.70
7204;DHT22;3643;52.460;13.322;2022-07-11T12:39:33;23.70;87.70
7204;DHT22;3643;52.460;13.322;2022-07-11T12:42:20;23.70;84.60
7204;DHT22;3643;52.460;13.322;2022-07-11T12:44:55;23.70;85.50
7204;DHT22;3643;52.460;13.322;2022-07-11T12:47:29;23.70;84.10
7204;DHT22;3643;52.460;13.322;2022-07-11T12:49:57;23.70;85.60
7204;DHT22;3643;52.460;13.322;2022-07-11T12:52:36;23.70;86.20
7204;DHT22;3643;52.460;13.322;2022-07-11T12:55:07;23.80;86.10
7204;DHT22;3643;52.460;13.322;2022-07-11T12:57:38;23.90;84.90
7204;DHT22;3643;52.460;13.322;2022-07-11T13:00:14;24.10;85.70
7204;DHT22;3643;52.460;13.322;2022-07-11T13:02:50;24.20;85.40
7204;DHT22;3643;52.460;13.322;2022-07-11T13:05:19;24.20;84.90
7204;DHT22;3643;52.460;13.322;2022-07-11T13:07:51;24.10;84.40
7204;DHT22;3643;52.460;13.322;2022-07-11T13:10:42;24.00;84.10
7204;DHT22;3643;52.460;13.322;2022-07-11T13:13:32;23.80;84.50
7204;DHT22;3643;52.460;13.322;2022-07-11T13:16:01;23.80;84.60
7204;DHT22;3643;52.460;13.322;2022-07-11T13:18:33;23.90;84.10
7204;DHT22;3643;52.460;13.322;2022-07-11T13:21:02;24.20;83.50
7204;DHT22;3643;52.460;13.322;2022-07-11T13:23:31;24.40;83.30
7204;DHT22;3643;52.460;13.322;2022-07-11T13:26:00;24.70;83.20
7204;DHT22;3643;52.460;13.322;2022-07-11T13:28:28;24.90;83.90
7204;DHT22;3643;52.460;13.322;2022-07-11T13:30:57;24.90;83.30
7204;DHT22;3643;52.460;13.322;2022-07-11T13:33:44;24.90;83.00
7204;DHT22;3643;52.460;13.322;2022-07-11T13:36:13;25.10;83.30
7204;DHT22;3643;52.460;13.322;2022-07-11T13:38:42;25.30;82.60
7204;DHT22;3643;52.460;13.322;2022-07-11T13:41:11;25.30;80.50
7204;DHT22;3643;52.460;13.322;2022-07-11T13:43:43;25.10;80.40
7204;DHT22;3643;52.460;13.322;2022-07-11T13:46:12;25.00;81.80
7204;DHT22;3643;52.460;13.322;2022-07-11T13:48:41;25.00;82.20
7204;DHT22;3643;52.460;13.322;2022-07-11T13:51:11;24.90;82.60
7204;DHT22;3643;52.460;13.322;2022-07-11T13:53:43;24.90;82.90
7204;DHT22;3643;52.460;13.322;2022-07-11T13:56:11;25.00;82.40
7204;DHT22;3643;52.460;13.322;2022-07-11T13:58:41;24.90;81.50
7204;DHT22;3643;52.460;13.322;2022-07-11T14:01:09;25.10;81.40
7204;DHT22;3643;52.460;13.322;2022-07-11T14:03:38;25.20;80.10
7204;DHT22;3643;52.460;13.322;2022-07-11T14:06:07;25.20;80.90
7204;DHT22;3643;52.460;13.322;2022-07-11T14:08:37;25.20;80.60
7204;DHT22;3643;52.460;13.322;2022-07-11T14:11:06;25.10;82.20
7204;DHT22;3643;52.460;13.322;2022-07-11T14:13:37;25.20;80.50
7204;DHT22;3643;52.460;13.322;2022-07-11T14:16:06;25.20;79.80
7204;DHT22;3643;52.460;13.322;2022-07-11T14:18:48;25.30;80.30
7204;DHT22;3643;52.460;13.322;2022-07-11T14:21:19;25.30;80.10
7204;DHT22;3643;52.460;13.322;2022-07-11T14:23:49;25.10;79.10
7204;DHT22;3643;52.460;13.322;2022-07-11T14:26:18;24.90;79.80
7204;DHT22;3643;52.460;13.322;2022-07-11T14:28:47;25.10;79.20
7204;DHT22;3643;52.460;13.322;2022-07-11T14:31:16;25.10;80.30
7204;DHT22;3643;52.460;13.322;2022-07-11T14:33:45;25.10;79.90
7204;DHT22;3643;52.460;13.322;2022-07-11T14:36:13;24.90;80.60
7204;DHT22;3643;52.460;13.322;2022-07-11T14:38:42;24.60;80.50
7204;DHT22;3643;52.460;13.322;2022-07-11T14:41:13;24.60;81.00
7204;DHT22;3643;52.460;13.322;2022-07-11T14:43:43;24.60;80.90
7204;DHT22;3643;52.460;13.322;2022-07-11T14:46:13;24.50;80.80
7204;DHT22;3643;52.460;13.322;2022-07-11T14:48:43;24.60;81.20
7204;DHT22;3643;52.460;13.322;2022-07-11T14:51:12;24.70;80.10
7204;DHT22;3643;52.460;13.322;2022-07-11T14:54:00;24.80;80.80
7204;DHT22;3643;52.460;13.322;2022-07-11T14:56:30;24.70;81.10
7204;DHT22;3643;52.460;13.322;2022-07-11T14:59:00;24.60;81.50
7204;DHT22;3643;52.460;13.322;2022-07-11T15:01:29;24.80;81.90
7204;DHT22;3643;52.460;13.322;2022-07-11T15:03:58;24.80;81.00
7204;DHT22;3643;52.460;13.322;2022-07-11T15:06:30;24.60;81.00
7204;DHT22;3643;52.460;13.322;2022-07-11T15:09:30;24.80;81.00
7204;DHT22;3643;52.460;13.322;2022-07-11T15:12:17;24.80;81.30
7204;DHT22;3643;52.460;13.322;2022-07-11T15:14:52;24.20;80.40
7204;DHT22;3643;52.460;13.322;2022-07-11T15:17:21;25.10;81.50
7204;DHT22;3643;52.460;13.322;2022-07-11T15:19:51;25.10;82.10
7204;DHT22;3643;52.460;13.322;2022-07-11T15:22:21;25.10;82.00
7204;DHT22;3643;52.460;13.322;2022-07-11T15:24:50;24.80;82.50
7204;DHT22;3643;52.460;13.322;2022-07-11T15:27:21;24.70;82.80
7204;DHT22;3643;52.460;13.322;2022-07-11T15:29:50;24.50;83.50
7204;DHT22;3643;52.460;13.322;2022-07-11T15:32:18;24.40;84.00
7204;DHT22;3643;52.460;13.322;2022-07-11T15:34:47;24.50;83.00
7204;DHT22;3643;52.460;13.322;2022-07-11T15:37:15;24.70;83.40
7204;DHT22;3643;52.460;13.322;2022-07-11T15:39:44;25.00;82.80
7204;DHT22;3643;52.460;13.322;2022-07-11T15:42:13;25.20;81.50
7204;DHT22;3643;52.460;13.322;2022-07-11T15:44:44;25.10;81.20
7204;DHT22;3643;52.460;13.322;2022-07-11T15:47:12;25.10;81.70
7204;DHT22;3643;52.460;13.322;2022-07-11T15:49:41;25.00;82.10
7204;DHT22;3643;52.460;13.322;2022-07-11T15:52:10;24.90;82.20
7204;DHT22;3643;52.460;13.322;2022-07-11T15:54:39;25.10;82.20
7204;DHT22;3643;52.460;13.322;2022-07-11T15:57:07;25.20;81.80
7204;DHT22;3643;52.460;13.322;2022-07-11T15:59:37;25.20;81.80
7204;DHT22;3643;52.460;13.322;2022-07-11T16:02:07;24.90;82.10
7204;DHT22;3643;52.460;13.322;2022-07-11T16:04:52;24.40;82.60
7204;DHT22;3643;52.460;13.322;2022-07-11T16:07:21;24.30;83.40
7204;DHT22;3643;52.460;13.322;2022-07-11T16:09:50;24.20;83.20
7204;DHT22;3643;52.460;13.322;2022-07-11T16:12:18;24.00;83.50
7204;DHT22;3643;52.460;13.322;2022-07-11T16:14:47;24.00;83.70